Time;durP1;ratioP1;P1;durP2;ratioP2;P2;SDS_P1;SDS_P2;PMS_P1;PMS_P2;Temp;Humidity;BMP_temperature;BMP_pressure;BME280_temperature;BME280_humidity;BME280_pressure;Samples;Min_cycle;Max_cycle;Signal;HPM_P1;HPM_P2
2022/09/03 00:00:03;;;;;;;1.45;1.35;;;19.60;59.00;;;;;;5045635;28;20237;-79
2022/09/03 00:02:42;;;;;;;2.08;1.83;;;19.60;59.40;;;;;;5047712;28;20215;-79
2022/09/03 00:05:18;;;;;;;2.55;1.65;;;19.60;59.40;;;;;;5042070;28;20565;-79
2022/09/03 00:07:55;;;;;;;2.60;1.50;;;19.60;59.60;;;;;;5039417;28;20190;-79
2022/09/03 00:10:28;;;;;;;2.55;1.40;;;19.60;59.30;;;;;;5044837;28;20202;-79
2022/09/03 00:13:01;;;;;;;2.65;1.63;;;19.60;59.60;;;;;;5063025;28;20206;-79
2022/09/03 00:15:31;;;;;;;1.90;1.73;;;19.60;59.80;;;;;;5044882;28;20202;-79
2022/09/03 00:18:05;;;;;;;2.25;1.83;;;19.50;59.80;;;;;;5060602;28;20207;-79
2022/09/03 00:20:41;;;;;;;1.60;1.50;;;19.50;59.80;;;;;;5047857;28;20226;-79
2022/09/03 00:23:14;;;;;;;2.53;1.55;;;19.60;60.30;;;;;;5045244;28;20209;-79
2022/09/03 00:25:47;;;;;;;3.28;1.63;;;19.60;60.00;;;;;;5049928;28;20201;-79
2022/09/03 00:28:19;;;;;;;2.88;1.38;;;19.60;60.20;;;;;;5065989;28;20218;-79
2022/09/03 00:30:52;;;;;;;2.30;1.60;;;19.50;60.50;;;;;;5046355;28;20201;-79
2022/09/03 00:33:23;;;;;;;2.70;1.92;;;19.50;60.90;;;;;;5046115;28;20203;-79
2022/09/03 00:36:02;;;;;;;2.08;1.55;;;19.40;61.00;;;;;;5064286;28;20212;-79
2022/09/03 00:38:30;;;;;;;3.15;1.60;;;19.50;61.30;;;;;;5060461;28;20221;-79
2022/09/03 00:41:09;;;;;;;2.53;1.85;;;19.40;61.20;;;;;;5065969;28;20225;-79
2022/09/03 00:43:52;;;;;;;1.70;1.55;;;19.30;61.80;;;;;;5044751;28;20195;-79
2022/09/03 00:46:26;;;;;;;2.63;1.50;;;19.40;61.60;;;;;;5050835;28;20660;-79
2022/09/03 00:49:08;;;;;;;1.73;1.30;;;19.40;61.90;;;;;;5064904;28;20233;-79
2022/09/03 00:51:47;;;;;;;1.85;1.40;;;19.40;62.10;;;;;;5062834;28;20558;-79
2022/09/03 00:54:24;;;;;;;3.65;1.70;;;19.30;62.30;;;;;;5051638;28;20198;-79
2022/09/03 00:57:11;;;;;;;1.77;1.50;;;19.30;62.60;;;;;;5046267;28;20218;-79
2022/09/03 00:59:45;;;;;;;1.52;1.40;;;19.20;62.70;;;;;;5058150;28;20248;-79
2022/09/03 01:02:27;;;;;;;3.60;2.03;;;19.20;63.20;;;;;;5048778;28;20695;-79
2022/09/03 01:05:08;;;;;;;3.47;1.90;;;19.20;63.60;;;;;;5069884;28;20202;-79
2022/09/03 01:07:45;;;;;;;1.60;1.50;;;19.20;63.10;;;;;;5067751;28;20190;-79
2022/09/03 01:10:26;;;;;;;1.80;1.70;;;19.20;63.50;;;;;;5049360;28;20222;-79
2022/09/03 01:13:00;;;;;;;2.20;1.60;;;19.20;63.40;;;;;;5051732;28;20202;-78
2022/09/03 01:15:35;;;;;;;1.95;1.60;;;19.20;63.60;;;;;;5044771;28;20202;-78
2022/09/03 01:18:13;;;;;;;1.42;1.20;;;19.30;64.10;;;;;;5047514;28;20194;-79
2022/09/03 01:20:52;;;;;;;1.40;1.30;;;19.30;63.80;;;;;;5047211;28;20225;-79
2022/09/03 01:23:54;;;;;;;2.42;1.70;;;19.20;63.70;;;;;;5061781;28;20198;-79
2022/09/03 01:26:40;;;;;;;1.40;1.30;;;19.20;64.40;;;;;;5048874;28;20205;-79
2022/09/03 01:29:18;;;;;;;1.55;1.40;;;19.10;64.20;;;;;;5044636;28;20679;-79
2022/09/03 01:31:57;;;;;;;1.60;1.50;;;19.10;64.70;;;;;;5050036;28;20198;-78
2022/09/03 01:34:36;;;;;;;1.45;1.33;;;19.00;64.90;;;;;;5042659;28;20201;-78
2022/09/03 01:37:14;;;;;;;2.25;1.48;;;19.00;65.10;;;;;;5047729;28;20660;-79
2022/09/03 01:39:52;;;;;;;1.77;1.40;;;19.10;64.90;;;;;;5045013;28;20638;-79
2022/09/03 01:42:29;;;;;;;1.45;1.35;;;19.10;65.60;;;;;;5060236;28;20700;-79
2022/09/03 01:45:20;;;;;;;3.28;1.60;;;19.10;65.50;;;;;;5046648;28;20660;-79
2022/09/03 01:48:01;;;;;;;3.05;1.67;;;19.00;65.60;;;;;;5058962;28;20210;-79
2022/09/03 01:50:46;;;;;;;1.50;1.40;;;19.00;65.70;;;;;;5065102;28;20202;-79
2022/09/03 01:53:26;;;;;;;3.53;1.60;;;19.00;66.30;;;;;;5044224;28;20205;-79
2022/09/03 01:56:09;;;;;;;5.38;1.40;;;19.00;66.30;;;;;;5050480;28;20198;-79
2022/09/03 01:58:42;;;;;;;2.20;1.60;;;19.00;66.40;;;;;;5044686;28;20218;-78
2022/09/03 02:01:16;;;;;;;2.08;1.50;;;19.00;66.50;;;;;;5049205;28;20210;-79
2022/09/03 02:03:48;;;;;;;1.85;1.65;;;19.00;66.70;;;;;;5048814;28;20227;-79
2022/09/03 02:06:19;;;;;;;3.00;1.90;;;18.90;66.90;;;;;;5040701;28;20202;-78
2022/09/03 02:08:49;;;;;;;2.53;1.67;;;18.90;67.80;;;;;;5048173;28;20222;-79
2022/09/03 02:11:17;;;;;;;2.30;1.42;;;18.90;67.90;;;;;;5041493;28;20198;-79
2022/09/03 02:13:48;;;;;;;2.03;1.38;;;18.90;68.40;;;;;;5047697;28;20203;-79
2022/09/03 02:16:20;;;;;;;1.40;1.30;;;18.80;68.50;;;;;;5045839;28;20194;-79
2022/09/03 02:18:51;;;;;;;3.70;1.60;;;18.90;68.60;;;;;;5060063;28;20218;-79
2022/09/03 02:21:22;;;;;;;2.55;1.30;;;18.80;68.90;;;;;;5043787;28;20210;-79
2022/09/03 02:23:50;;;;;;;3.25;1.40;;;18.70;69.40;;;;;;5045275;28;20691;-79
2022/09/03 02:26:21;;;;;;;1.70;1.42;;;18.80;69.40;;;;;;5047001;28;20217;-79
2022/09/03 02:28:49;;;;;;;2.22;1.70;;;18.60;70.30;;;;;;5039666;28;20233;-79
2022/09/03 02:31:18;;;;;;;3.10;1.63;;;18.70;70.30;;;;;;5044199;28;20570;-79
2022/09/03 02:33:48;;;;;;;2.08;1.50;;;18.60;70.80;;;;;;5048336;28;20198;-79
2022/09/03 02:36:18;;;;;;;1.67;1.50;;;18.60;71.10;;;;;;5065119;28;20209;-79
2022/09/03 02:38:48;;;;;;;2.00;1.40;;;18.60;71.60;;;;;;5046524;28;20718;-78
2022/09/03 02:41:16;;;;;;;2.33;1.38;;;18.50;72.80;;;;;;5049344;28;20218;-78
2022/09/03 02:43:49;;;;;;;2.22;1.40;;;18.50;72.50;;;;;;5047819;28;20191;-78
2022/09/03 02:46:27;;;;;;;2.53;1.25;;;18.40;73.30;;;;;;5047161;28;20201;-78
2022/09/03 02:48:55;;;;;;;1.58;1.48;;;18.30;74.40;;;;;;5047551;28;20218;-78
2022/09/03 02:51:22;;;;;;;3.63;1.45;;;18.40;74.50;;;;;;5042388;28;20656;-78
2022/09/03 02:53:52;;;;;;;1.77;1.58;;;18.40;74.90;;;;;;5045132;28;20213;-78
2022/09/03 02:56:23;;;;;;;1.95;1.40;;;18.30;75.30;;;;;;5044459;28;20197;-78
2022/09/03 02:58:50;;;;;;;1.83;1.30;;;18.40;75.70;;;;;;5060818;28;20229;-78
2022/09/03 03:01:18;;;;;;;2.10;1.35;;;18.30;76.20;;;;;;5045460;28;20225;-79
2022/09/03 03:03:47;;;;;;;2.05;1.70;;;18.30;76.60;;;;;;5046745;28;20217;-79
2022/09/03 03:06:14;;;;;;;1.88;1.60;;;18.00;77.60;;;;;;5049503;28;20209;-79
2022/09/03 03:08:43;;;;;;;2.08;1.35;;;18.00;79.30;;;;;;5043728;28;20234;-79
2022/09/03 03:11:10;;;;;;;1.77;1.40;;;18.00;79.20;;;;;;5062375;28;20217;-79
2022/09/03 03:13:38;;;;;;;2.47;1.58;;;18.10;80.20;;;;;;5045681;28;20206;-79
2022/09/03 03:16:06;;;;;;;2.55;2.08;;;17.90;81.50;;;;;;5049461;28;20205;-79
2022/09/03 03:18:34;;;;;;;2.70;1.67;;;17.90;82.20;;;;;;5044634;28;20223;-79
2022/09/03 03:21:06;;;;;;;2.13;1.83;;;17.90;82.70;;;;;;5048905;28;20202;-79
2022/09/03 03:23:34;;;;;;;2.22;1.63;;;17.90;82.90;;;;;;5057473;28;20195;-79
2022/09/03 03:26:02;;;;;;;2.47;1.77;;;17.80;85.10;;;;;;5057851;28;20203;-78
2022/09/03 03:28:31;;;;;;;2.00;1.75;;;17.60;85.80;;;;;;5042875;28;20230;-78
2022/09/03 03:30:58;;;;;;;2.28;1.70;;;17.70;86.60;;;;;;5047898;28;20668;-78
2022/09/03 03:33:26;;;;;;;1.92;1.80;;;17.70;86.10;;;;;;5043093;28;20201;-78
2022/09/03 03:35:53;;;;;;;2.72;1.65;;;17.70;87.10;;;;;;5061816;28;20190;-78
2022/09/03 03:38:22;;;;;;;2.83;1.48;;;17.60;87.60;;;;;;5041659;28;20847;-78
2022/09/03 03:40:49;;;;;;;2.00;1.90;;;17.60;88.50;;;;;;5049980;28;20188;-78
2022/09/03 03:43:17;;;;;;;3.13;1.90;;;17.70;88.30;;;;;;5043829;28;20214;-78
2022/09/03 03:45:45;;;;;;;3.38;1.85;;;17.70;88.60;;;;;;5043688;28;20218;-78
2022/09/03 03:48:12;;;;;;;2.13;1.80;;;17.80;88.70;;;;;;5045306;28;20229;-78
2022/09/03 03:50:39;;;;;;;2.28;2.05;;;17.80;88.40;;;;;;5060290;28;20205;-78
2022/09/03 03:53:07;;;;;;;2.45;1.65;;;17.90;87.80;;;;;;5050272;28;20202;-78
2022/09/03 03:55:36;;;;;;;2.13;1.92;;;17.90;88.20;;;;;;5048119;28;20203;-78
2022/09/03 03:58:04;;;;;;;2.63;2.05;;;17.90;88.60;;;;;;5049767;28;20707;-78
2022/09/03 04:00:36;;;;;;;1.88;1.77;;;17.80;88.30;;;;;;5061221;28;20214;-78
2022/09/03 04:03:04;;;;;;;4.30;1.55;;;17.90;88.50;;;;;;5048271;28;20600;-78
2022/09/03 04:05:31;;;;;;;2.30;1.70;;;17.90;88.00;;;;;;5056289;28;20548;-78
2022/09/03 04:08:02;;;;;;;2.15;1.80;;;17.90;87.80;;;;;;5049134;28;20206;-78
2022/09/03 04:10:33;;;;;;;2.03;1.60;;;17.90;88.00;;;;;;5062924;28;20199;-79
2022/09/03 04:13:02;;;;;;;3.10;1.60;;;17.80;88.60;;;;;;5051363;28;20202;-78
2022/09/03 04:15:29;;;;;;;1.75;1.60;;;17.70;88.80;;;;;;5049589;28;20190;-78
2022/09/03 04:17:57;;;;;;;2.05;1.70;;;17.70;89.30;;;;;;5049466;28;20194;-78
2022/09/03 04:20:24;;;;;;;3.55;2.00;;;17.60;89.70;;;;;;5049521;28;20199;-78
2022/09/03 04:22:52;;;;;;;1.70;1.60;;;17.60;89.80;;;;;;5050520;28;20210;-77
2022/09/03 04:25:19;;;;;;;1.85;1.52;;;17.60;89.70;;;;;;5042964;28;20202;-78
2022/09/03 04:27:46;;;;;;;1.70;1.50;;;17.70;89.80;;;;;;5062587;28;20203;-78
2022/09/03 04:30:15;;;;;;;2.67;2.08;;;17.60;89.90;;;;;;5051073;28;20218;-78
2022/09/03 04:32:55;;;;;;;1.65;1.55;;;17.60;90.00;;;;;;5046626;28;20198;-78
2022/09/03 04:35:30;;;;;;;2.00;1.70;;;17.60;89.80;;;;;;5048829;28;20194;-78
2022/09/03 04:37:58;;;;;;;1.55;1.45;;;17.60;90.00;;;;;;5062270;28;20194;-78
2022/09/03 04:40:25;;;;;;;2.00;1.80;;;17.50;90.00;;;;;;5059376;28;20208;-78
2022/09/03 04:42:57;;;;;;;1.90;1.70;;;17.50;90.10;;;;;;5042416;28;20692;-78
2022/09/03 04:45:28;;;;;;;3.30;2.10;;;17.50;90.30;;;;;;5065921;28;20202;-78
2022/09/03 04:47:59;;;;;;;2.40;1.80;;;17.50;90.20;;;;;;5048152;28;20559;-78
2022/09/03 04:50:28;;;;;;;2.42;1.95;;;17.50;90.40;;;;;;5043037;28;20198;-79
2022/09/03 04:53:01;;;;;;;2.20;1.92;;;17.50;90.20;;;;;;5063276;28;20201;-78
2022/09/03 04:55:28;;;;;;;1.75;1.63;;;17.40;90.60;;;;;;5051412;28;20198;-78
2022/09/03 04:57:56;;;;;;;1.77;1.67;;;17.40;90.60;;;;;;5061944;28;20529;-79
2022/09/03 05:00:23;;;;;;;1.65;1.50;;;17.40;91.00;;;;;;5045916;28;20209;-79
2022/09/03 05:02:52;;;;;;;2.20;1.55;;;17.40;90.70;;;;;;5060711;28;20576;-80
2022/09/03 05:05:20;;;;;;;1.90;1.60;;;17.40;90.70;;;;;;5049265;28;20198;-79
2022/09/03 05:07:48;;;;;;;2.97;1.60;;;17.40;90.70;;;;;;5050188;28;20205;-78
2022/09/03 05:10:31;;;;;;;1.65;1.55;;;17.40;90.70;;;;;;5041488;28;20676;-78
2022/09/03 05:13:13;;;;;;;3.05;1.67;;;17.40;90.70;;;;;;5043239;28;20209;-79
2022/09/03 05:15:43;;;;;;;1.75;1.65;;;17.40;90.90;;;;;;5060240;28;20210;-79
2022/09/03 05:18:12;;;;;;;4.30;2.00;;;17.30;90.90;;;;;;5063561;28;20213;-79
2022/09/03 05:20:40;;;;;;;2.42;2.22;;;17.30;91.20;;;;;;5049791;28;20194;-79
2022/09/03 05:23:07;;;;;;;1.70;1.60;;;17.20;91.10;;;;;;5048206;28;20229;-79
2022/09/03 05:25:36;;;;;;;2.83;1.58;;;17.20;91.20;;;;;;5044600;28;20202;-79
2022/09/03 05:28:04;;;;;;;2.33;1.75;;;17.30;91.10;;;;;;5046668;28;20214;-80
2022/09/03 05:30:35;;;;;;;2.45;1.83;;;17.30;91.20;;;;;;5047194;28;20217;-79
2022/09/03 05:33:14;;;;;;;2.20;1.80;;;17.40;91.10;;;;;;5064293;28;20195;-79
2022/09/03 05:35:41;;;;;;;2.03;1.65;;;17.30;90.90;;;;;;5061517;28;20194;-78
2022/09/03 05:38:09;;;;;;;1.95;1.70;;;17.30;91.40;;;;;;5046351;28;20209;-77
2022/09/03 05:40:36;;;;;;;1.85;1.60;;;17.40;91.20;;;;;;5040073;28;20202;-78
2022/09/03 05:43:04;;;;;;;2.00;1.60;;;17.40;91.10;;;;;;5046932;28;20218;-83
2022/09/03 05:45:31;;;;;;;1.75;1.65;;;17.40;91.20;;;;;;5065444;28;20201;-78
2022/09/03 05:48:00;;;;;;;3.10;1.42;;;17.50;91.00;;;;;;5049106;28;20202;-77
2022/09/03 05:50:29;;;;;;;8.60;2.15;;;17.40;91.30;;;;;;5059913;28;20672;-77
2022/09/03 05:52:58;;;;;;;8.85;2.10;;;17.70;92.90;;;;;;5059797;28;20212;-77
2022/09/03 05:55:27;;;;;;;6.20;2.20;;;18.20;91.20;;;;;;5046490;28;20700;-77
2022/09/03 05:57:55;;;;;;;5.63;2.08;;;18.60;90.30;;;;;;5059403;28;20206;-78
2022/09/03 06:00:22;;;;;;;10.50;2.55;;;18.80;89.00;;;;;;5035583;28;20203;-77
2022/09/03 06:02:51;;;;;;;3.33;1.50;;;18.90;88.50;;;;;;5059722;28;20221;-77
2022/09/03 06:05:19;;;;;;;2.30;1.55;;;19.00;87.80;;;;;;5057155;28;20206;-76
2022/09/03 06:07:48;;;;;;;3.63;2.00;;;19.00;87.70;;;;;;5060048;28;20693;-77
2022/09/03 06:10:16;;;;;;;2.53;1.63;;;19.10;86.90;;;;;;5043563;28;20229;-77
2022/09/03 06:12:48;;;;;;;2.25;1.80;;;19.20;86.20;;;;;;5055993;28;20681;-77
2022/09/03 06:15:16;;;;;;;3.30;1.70;;;19.30;85.60;;;;;;5044940;28;20973;-77
2022/09/03 06:17:43;;;;;;;6.13;1.85;;;18.90;86.10;;;;;;5046146;28;20207;-77
2022/09/03 06:20:11;;;;;;;3.10;1.60;;;19.20;86.30;;;;;;5046495;28;20714;-77
2022/09/03 06:22:42;;;;;;;3.97;1.70;;;19.20;85.60;;;;;;5046439;28;20226;-77
2022/09/03 06:25:11;;;;;;;2.45;1.45;;;19.30;85.90;;;;;;5048384;28;20217;-77
2022/09/03 06:27:38;;;;;;;2.95;1.90;;;19.40;85.60;;;;;;5043530;28;20195;-77
2022/09/03 06:30:06;;;;;;;1.52;1.40;;;19.40;86.20;;;;;;5050944;28;20226;-77
2022/09/03 06:32:34;;;;;;;2.13;1.45;;;19.50;85.10;;;;;;5046492;28;20222;-77
2022/09/03 06:35:01;;;;;;;1.83;1.63;;;19.60;84.60;;;;;;5064271;28;20206;-77
2022/09/03 06:37:29;;;;;;;2.53;1.70;;;19.40;84.60;;;;;;5051234;28;20571;-77
2022/09/03 06:39:56;;;;;;;3.35;1.92;;;19.60;84.70;;;;;;5047298;28;20207;-77
2022/09/03 06:42:25;;;;;;;4.55;3.20;;;19.20;86.50;;;;;;5042202;28;20202;-77
2022/09/03 06:44:53;;;;;;;3.58;2.92;;;19.10;87.50;;;;;;5058224;28;20218;-77
2022/09/03 06:47:21;;;;;;;2.47;1.92;;;19.20;87.50;;;;;;5050771;28;20205;-77
2022/09/03 06:49:48;;;;;;;2.80;1.48;;;19.20;87.50;;;;;;5044070;28;20217;-77
2022/09/03 06:52:16;;;;;;;2.88;1.90;;;19.20;86.50;;;;;;5040659;28;20202;-77
2022/09/03 06:54:44;;;;;;;3.45;1.83;;;19.30;86.90;;;;;;5042566;28;20237;-77
2022/09/03 06:57:12;;;;;;;3.38;2.22;;;19.40;86.40;;;;;;5049227;28;20198;-77
2022/09/03 06:59:42;;;;;;;2.13;1.27;;;19.30;86.60;;;;;;5054825;28;20226;-77
2022/09/03 07:02:10;;;;;;;1.92;1.40;;;19.30;85.80;;;;;;5047806;28;20206;-77
2022/09/03 07:04:37;;;;;;;3.20;1.73;;;19.40;85.30;;;;;;5050066;28;20299;-77
2022/09/03 07:07:11;;;;;;;1.60;1.50;;;19.60;85.00;;;;;;5048631;28;20202;-77
2022/09/03 07:09:39;;;;;;;2.60;1.65;;;19.50;85.20;;;;;;5049727;28;20216;-77
2022/09/03 07:12:09;;;;;;;2.17;1.60;;;19.50;85.20;;;;;;5045267;28;20221;-77
2022/09/03 07:14:37;;;;;;;1.60;1.38;;;19.60;86.00;;;;;;5043439;28;20190;-77
2022/09/03 07:17:06;;;;;;;4.78;1.75;;;19.50;85.30;;;;;;5045919;28;20218;-77
2022/09/03 07:19:33;;;;;;;5.03;1.80;;;19.80;86.10;;;;;;5055156;28;20222;-78
2022/09/03 07:22:01;;;;;;;2.00;1.33;;;19.70;85.50;;;;;;5051627;28;20217;-77
2022/09/03 07:24:29;;;;;;;5.00;1.73;;;19.90;85.80;;;;;;5047053;28;20218;-78
2022/09/03 07:26:56;;;;;;;1.10;1.00;;;20.10;84.90;;;;;;5051900;28;21592;-77
2022/09/03 07:29:24;;;;;;;4.88;1.38;;;19.70;85.60;;;;;;5048814;28;20226;-78
2022/09/03 07:31:51;;;;;;;1.60;1.27;;;20.00;85.20;;;;;;5063680;28;20203;-78
2022/09/03 07:34:24;;;;;;;2.22;1.30;;;20.20;84.40;;;;;;5043136;28;20199;-78
2022/09/03 07:37:11;;;;;;;1.55;1.10;;;20.10;84.20;;;;;;5039916;28;20193;-77
2022/09/03 07:39:40;;;;;;;2.88;1.70;;;19.90;85.10;;;;;;5044729;28;20218;-78
2022/09/03 07:42:09;;;;;;;3.92;2.22;;;19.90;84.80;;;;;;5066844;28;20197;-78
2022/09/03 07:44:38;;;;;;;1.98;1.60;;;20.10;84.70;;;;;;5051249;28;20223;-80
2022/09/03 07:47:06;;;;;;;3.45;1.40;;;20.20;85.30;;;;;;5045151;28;20206;-79
2022/09/03 07:49:35;;;;;;;2.58;1.38;;;20.30;83.30;;;;;;5047704;28;20688;-79
2022/09/03 07:52:29;;;;;;;2.08;1.23;;;20.30;83.90;;;;;;5045387;28;20206;-79
2022/09/03 07:54:58;;;;;;;2.30;1.33;;;20.30;84.00;;;;;;5044171;28;20201;-79
2022/09/03 07:57:25;;;;;;;4.88;1.50;;;20.50;82.70;;;;;;5064741;28;20206;-80
2022/09/03 07:59:53;;;;;;;1.88;1.55;;;20.60;83.20;;;;;;5048799;28;20223;-80
2022/09/03 08:02:20;;;;;;;1.60;1.50;;;20.60;82.80;;;;;;5053190;28;20199;-79
2022/09/03 08:04:49;;;;;;;3.65;1.58;;;20.60;83.10;;;;;;5047684;28;20222;-79
2022/09/03 08:07:16;;;;;;;1.48;1.33;;;20.50;83.70;;;;;;5045708;28;20207;-79
2022/09/03 08:09:44;;;;;;;1.42;1.33;;;20.60;82.70;;;;;;5066269;28;20218;-79
2022/09/03 08:12:11;;;;;;;2.30;1.35;;;20.60;83.40;;;;;;5041044;28;20225;-79
2022/09/03 08:14:39;;;;;;;1.83;1.40;;;20.60;83.40;;;;;;5060704;28;20209;-78
2022/09/03 08:17:06;;;;;;;2.00;1.50;;;20.70;82.90;;;;;;5067895;28;20209;-78
2022/09/03 08:19:34;;;;;;;1.40;1.23;;;20.60;83.10;;;;;;5055311;28;20241;-78
2022/09/03 08:22:03;;;;;;;2.90;1.50;;;20.60;82.90;;;;;;5046296;28;20210;-78
2022/09/03 08:24:31;;;;;;;1.75;1.33;;;20.80;82.50;;;;;;5047512;28;20676;-79
2022/09/03 08:26:58;;;;;;;2.67;1.45;;;21.00;81.90;;;;;;5056654;28;20206;-79
2022/09/03 08:29:26;;;;;;;1.38;1.17;;;21.10;81.90;;;;;;5043787;28;20226;-79
2022/09/03 08:31:53;;;;;;;2.05;1.30;;;21.20;82.20;;;;;;5055492;28;20206;-78
2022/09/03 08:34:21;;;;;;;1.73;1.30;;;21.20;81.50;;;;;;5043829;28;20205;-79
2022/09/03 08:36:49;;;;;;;4.22;1.67;;;21.20;80.20;;;;;;5061747;28;20214;-79
2022/09/03 08:39:18;;;;;;;1.77;1.27;;;21.30;80.40;;;;;;5049873;28;20222;-79
2022/09/03 08:42:13;;;;;;;2.05;1.40;;;21.30;79.80;;;;;;5072245;28;20675;-79
2022/09/03 08:44:46;;;;;;;2.30;1.35;;;21.40;79.60;;;;;;5043909;28;20218;-79
2022/09/03 08:47:20;;;;;;;1.63;1.10;;;21.50;80.20;;;;;;5054066;28;20676;-78
2022/09/03 08:49:54;;;;;;;1.30;1.20;;;21.60;80.30;;;;;;5050042;28;20222;-78
2022/09/03 08:52:31;;;;;;;1.90;1.38;;;21.60;79.70;;;;;;5042568;28;20206;-81
2022/09/03 08:55:11;;;;;;;2.85;1.50;;;21.60;79.90;;;;;;5074488;28;20190;-80
2022/09/03 08:57:45;;;;;;;2.78;1.30;;;21.70;80.40;;;;;;5056967;28;20210;-82
2022/09/03 09:00:13;;;;;;;2.40;1.50;;;21.80;80.10;;;;;;5056191;28;20214;-79
2022/09/03 09:02:58;;;;;;;2.90;1.70;;;21.90;80.10;;;;;;5051687;28;20203;-80
2022/09/03 09:05:37;;;;;;;5.00;1.52;;;22.10;79.70;;;;;;5045309;28;20218;-80
2022/09/03 09:08:14;;;;;;;1.58;1.40;;;21.90;79.70;;;;;;5048643;28;20534;-80
2022/09/03 09:10:46;;;;;;;1.67;1.30;;;21.90;78.50;;;;;;5064311;28;20217;-80
2022/09/03 09:13:24;;;;;;;1.38;1.20;;;22.00;78.20;;;;;;5071268;28;20213;-81
2022/09/03 09:16:03;;;;;;;6.13;1.67;;;22.10;77.50;;;;;;5053733;28;20197;-79
2022/09/03 09:18:41;;;;;;;3.20;1.50;;;22.20;79.00;;;;;;5053609;28;20214;-79
2022/09/03 09:21:13;;;;;;;4.10;1.60;;;22.30;75.70;;;;;;5051313;28;20209;-78
2022/09/03 09:23:45;;;;;;;1.90;1.42;;;22.30;78.00;;;;;;5064657;28;20202;-78
2022/09/03 09:26:18;;;;;;;1.65;1.50;;;22.50;77.90;;;;;;5045223;28;20207;-78
2022/09/03 09:28:47;;;;;;;3.67;2.00;;;22.40;75.90;;;;;;5036449;28;20229;-79
2022/09/03 09:31:37;;;;;;;1.17;1.10;;;22.40;75.50;;;;;;5051229;28;20194;-79
2022/09/03 09:34:07;;;;;;;1.40;1.30;;;22.60;75.00;;;;;;5070749;28;20199;-80
2022/09/03 09:37:16;;;;;;;;;;;;;;;;;;;;;
2022/09/03 09:39:59;;;;;;;2.55;1.50;;;22.70;73.90;;;;;;5011723;28;20221;-80
2022/09/03 09:42:29;;;;;;;2.60;1.70;;;22.80;74.10;;;;;;5068552;28;20199;-79
2022/09/03 09:45:10;;;;;;;8.43;4.78;;;22.80;73.70;;;;;;5050618;28;20798;-78
2022/09/03 09:47:40;;;;;;;5.80;2.20;;;22.90;73.60;;;;;;5049100;28;20199;-78
2022/09/03 09:50:19;;;;;;;4.18;1.45;;;23.00;73.30;;;;;;5046864;28;20211;-77
2022/09/03 09:52:46;;;;;;;9.70;5.00;;;22.90;72.80;;;;;;5043395;28;20197;-77
2022/09/03 09:55:18;;;;;;;10.68;4.15;;;23.20;72.00;;;;;;5041243;28;20206;-77
2022/09/03 09:57:46;;;;;;;4.88;2.10;;;23.30;70.40;;;;;;5046810;28;20218;-78
2022/09/03 10:00:17;;;;;;;7.10;3.03;;;23.50;69.20;;;;;;5065383;28;20233;-77
2022/09/03 10:02:49;;;;;;;2.10;1.40;;;23.60;69.70;;;;;;5048995;28;20198;-77
2022/09/03 10:05:21;;;;;;;2.88;1.30;;;23.70;68.20;;;;;;5044013;28;20210;-77
2022/09/03 10:07:56;;;;;;;1.90;1.50;;;23.70;68.60;;;;;;5047824;28;20205;-77
2022/09/03 10:10:24;;;;;;;2.50;1.60;;;23.90;67.80;;;;;;5042429;28;20584;-76
2022/09/03 10:13:26;;;;;;;4.30;1.95;;;24.00;66.70;;;;;;5048740;28;20714;-76
2022/09/03 10:16:00;;;;;;;1.95;1.52;;;24.00;65.90;;;;;;5051332;28;20703;-77
2022/09/03 10:18:39;;;;;;;1.70;1.60;;;24.10;66.80;;;;;;5046472;28;20289;-77
2022/09/03 10:21:11;;;;;;;2.67;1.45;;;24.20;66.10;;;;;;5050399;28;20209;-77
2022/09/03 10:23:52;;;;;;;2.42;1.40;;;24.30;65.20;;;;;;5047897;28;20566;-77
2022/09/03 10:26:29;;;;;;;2.00;1.60;;;24.40;65.50;;;;;;5056622;28;20703;-77
2022/09/03 10:29:00;;;;;;;2.67;1.70;;;24.60;64.00;;;;;;5051425;28;20609;-77
2022/09/03 10:31:41;;;;;;;3.40;1.67;;;24.50;63.90;;;;;;5050438;28;20213;-77
2022/09/03 10:34:14;;;;;;;2.05;1.50;;;24.60;63.60;;;;;;5060223;28;20198;-77
2022/09/03 10:36:50;;;;;;;2.38;2.13;;;24.30;64.70;;;;;;5049423;28;20201;-77
2022/09/03 10:39:23;;;;;;;2.08;1.98;;;24.30;65.90;;;;;;5060698;28;20217;-78
2022/09/03 10:42:02;;;;;;;2.13;1.92;;;24.30;65.00;;;;;;5056992;28;20198;-78
2022/09/03 10:44:50;;;;;;;2.38;1.58;;;24.50;68.50;;;;;;5057927;28;20209;-78
2022/09/03 10:47:42;;;;;;;2.40;1.65;;;24.70;63.80;;;;;;5047162;28;20202;-78
2022/09/03 10:50:15;;;;;;;2.42;1.90;;;24.70;63.70;;;;;;5043690;28;20585;-78
2022/09/03 10:53:06;;;;;;;2.60;1.85;;;24.90;63.30;;;;;;5068949;28;20190;-79
2022/09/03 10:55:45;;;;;;;2.22;2.03;;;24.80;64.30;;;;;;5042263;28;20218;-79
2022/09/03 10:58:32;;;;;;;1.85;1.70;;;24.70;63.80;;;;;;5051582;28;20202;-79
2022/09/03 11:01:09;;;;;;;2.38;2.17;;;24.20;64.40;;;;;;5049205;28;20217;-79
2022/09/03 11:03:44;;;;;;;2.20;1.80;;;24.30;65.20;;;;;;5047390;28;20197;-78
2022/09/03 11:06:20;;;;;;;3.88;1.90;;;24.20;64.20;;;;;;5050856;28;20556;-79
2022/09/03 11:08:55;;;;;;;2.58;2.15;;;24.40;63.60;;;;;;5050393;28;20222;-79
2022/09/03 11:11:27;;;;;;;2.70;2.08;;;24.50;62.60;;;;;;5048487;28;20229;-78
2022/09/03 11:13:59;;;;;;;2.42;1.83;;;24.70;62.50;;;;;;5047655;28;20579;-78
2022/09/03 11:16:32;;;;;;;1.90;1.50;;;24.90;62.80;;;;;;5043911;28;20198;-78
2022/09/03 11:19:05;;;;;;;3.83;2.20;;;25.30;61.50;;;;;;5047955;28;20225;-78
2022/09/03 11:21:36;;;;;;;2.08;1.80;;;25.10;60.80;;;;;;5048519;28;20198;-78
2022/09/03 11:24:12;;;;;;;1.83;1.70;;;24.80;61.70;;;;;;5044642;28;20199;-79
2022/09/03 11:26:42;;;;;;;1.88;1.77;;;24.70;61.40;;;;;;5043255;28;20213;-80
2022/09/03 11:29:13;;;;;;;2.05;1.85;;;25.00;61.50;;;;;;5066098;28;20230;-80
2022/09/03 11:31:56;;;;;;;2.53;2.03;;;25.20;59.60;;;;;;5069871;28;20190;-80
2022/09/03 11:34:30;;;;;;;2.42;1.95;;;25.50;58.80;;;;;;5064979;28;20679;-80
2022/09/03 11:37:17;;;;;;;2.83;1.90;;;25.70;58.80;;;;;;5050221;28;20194;-80
2022/09/03 11:39:53;;;;;;;3.10;1.90;;;25.60;57.90;;;;;;5049047;28;20214;-80
2022/09/03 11:42:30;;;;;;;3.95;1.90;;;25.30;59.00;;;;;;5069318;28;20202;-80
2022/09/03 11:45:14;;;;;;;2.30;2.10;;;24.90;59.50;;;;;;5060389;28;20552;-80
2022/09/03 11:47:45;;;;;;;2.60;1.85;;;25.10;60.30;;;;;;5048297;28;20205;-80
2022/09/03 11:50:19;;;;;;;4.38;2.22;;;25.10;59.60;;;;;;5052638;28;20259;-81
2022/09/03 11:52:48;;;;;;;3.58;2.10;;;25.30;59.50;;;;;;5048940;28;20204;-80
2022/09/03 11:55:29;;;;;;;2.42;1.95;;;25.50;59.30;;;;;;5061495;28;20210;-80
2022/09/03 11:57:57;;;;;;;2.25;2.00;;;25.60;57.70;;;;;;5048618;28;20198;-79
2022/09/03 12:00:25;;;;;;;2.28;2.08;;;25.80;57.00;;;;;;5047676;28;20217;-80
2022/09/03 12:03:01;;;;;;;3.08;1.80;;;26.00;56.10;;;;;;5064805;28;20194;-80
2022/09/03 12:05:39;;;;;;;2.53;2.13;;;25.80;55.90;;;;;;5066036;28;20201;-80
2022/09/03 12:08:27;;;;;;;2.67;1.80;;;26.00;55.50;;;;;;5047609;28;20206;-80
2022/09/03 12:11:02;;;;;;;3.88;2.90;;;26.30;55.20;;;;;;5062163;28;20206;-80
2022/09/03 12:13:45;;;;;;;2.25;2.03;;;26.30;54.60;;;;;;5051764;28;20201;-80
2022/09/03 12:16:41;;;;;;;1.73;1.63;;;26.30;53.50;;;;;;5044767;28;20202;-80
2022/09/03 12:19:21;;;;;;;2.17;1.98;;;26.30;53.90;;;;;;5047851;28;20222;-79
2022/09/03 12:21:49;;;;;;;2.20;2.00;;;26.00;53.60;;;;;;5044191;28;20187;-80
2022/09/03 12:24:19;;;;;;;1.77;1.52;;;26.30;53.30;;;;;;5065820;28;20208;-80
2022/09/03 12:26:46;;;;;;;3.63;1.83;;;26.60;53.30;;;;;;5055702;28;20215;-80
2022/09/03 12:29:25;;;;;;;2.13;1.98;;;26.90;52.50;;;;;;5053325;28;20222;-80
2022/09/03 12:31:55;;;;;;;2.35;1.77;;;26.70;52.60;;;;;;5051991;28;20199;-80
2022/09/03 12:34:24;;;;;;;3.50;2.20;;;26.10;53.00;;;;;;5054077;28;20209;-80
2022/09/03 12:36:59;;;;;;;1.80;1.70;;;26.40;53.60;;;;;;5049454;28;20653;-80
2022/09/03 12:39:27;;;;;;;2.63;1.70;;;26.50;53.40;;;;;;5060649;28;20672;-80
2022/09/03 12:42:00;;;;;;;2.83;2.13;;;26.70;52.40;;;;;;5049626;28;20205;-80
2022/09/03 12:44:30;;;;;;;3.28;2.00;;;26.60;51.80;;;;;;5051877;28;20198;-80
2022/09/03 12:47:02;;;;;;;1.70;1.60;;;26.90;52.30;;;;;;5050148;28;20214;-80
2022/09/03 12:49:37;;;;;;;2.17;1.95;;;26.70;52.20;;;;;;5048993;28;20227;-80
2022/09/03 12:52:13;;;;;;;2.47;1.77;;;26.70;52.50;;;;;;5049992;28;20194;-80
2022/09/03 12:54:48;;;;;;;2.40;1.85;;;27.10;52.20;;;;;;5053264;28;20566;-80
2022/09/03 12:57:22;;;;;;;2.17;1.83;;;27.10;51.70;;;;;;5062189;28;20747;-80
2022/09/03 12:59:53;;;;;;;6.00;2.30;;;27.00;51.80;;;;;;5049198;28;20718;-80
2022/09/03 13:02:26;;;;;;;2.20;2.00;;;26.90;52.70;;;;;;5047588;28;20198;-80
2022/09/03 13:04:55;;;;;;;2.33;2.13;;;27.20;51.80;;;;;;5065192;28;20687;-80
2022/09/03 13:07:30;;;;;;;1.83;1.70;;;27.40;51.30;;;;;;5065538;28;20222;-79
2022/09/03 13:10:03;;;;;;;2.80;2.00;;;27.20;50.90;;;;;;5042912;28;20230;-80
2022/09/03 13:12:34;;;;;;;2.13;1.85;;;27.80;50.50;;;;;;5066051;28;20660;-80
2022/09/03 13:15:17;;;;;;;2.17;1.98;;;28.20;49.80;;;;;;5042141;28;20203;-80